Time;durP1;ratioP1;P1;durP2;ratioP2;P2;SDS_P1;SDS_P2;PMS_P1;PMS_P2;Temp;Humidity;BMP_temperature;BMP_pressure;BME280_temperature;BME280_humidity;BME280_pressure;Samples;Min_cycle;Max_cycle;Signal;HPM_P1;HPM_P2
2022/07/04 00:00:22;;;;;;;;;0.00;0.00;;;;;18.98;50.16;101292.69;5090074;27;45428;-80
2022/07/04 00:02:48;;;;;;;;;1.00;1.00;;;;;18.98;50.68;101295.38;5095008;27;45590;-79
2022/07/04 00:05:15;;;;;;;;;0.75;0.75;;;;;18.94;50.34;101304.47;5093973;27;45614;-79
2022/07/04 00:07:43;;;;;;;;;0.00;0.00;;;;;18.92;50.62;101298.31;5089005;27;45435;-78
2022/07/04 00:10:12;;;;;;;;;0.50;0.50;;;;;18.87;51.19;101316.38;5089208;27;45510;-78
2022/07/04 00:12:37;;;;;;;;;1.00;1.00;;;;;18.76;51.17;101303.41;5083892;27;45490;-77
2022/07/04 00:15:04;;;;;;;;;0.00;0.00;;;;;18.72;51.23;101311.66;5083881;27;45563;-78
2022/07/04 00:17:30;;;;;;;;;0.00;0.00;;;;;18.39;51.49;101259.50;5095779;27;45497;-79
2022/07/04 00:19:56;;;;;;;;;1.00;1.00;;;;;18.62;51.93;101312.03;5090600;27;45411;-78
2022/07/04 00:22:21;;;;;;;;;0.00;0.00;;;;;18.62;51.89;101312.03;5084426;27;45572;-79
2022/07/04 00:24:47;;;;;;;;;2.00;1.00;;;;;18.55;52.08;101302.53;5095751;27;45473;-78
2022/07/04 00:27:13;;;;;;;;;0.00;0.00;;;;;18.58;52.19;101307.75;5088881;27;46071;-79
2022/07/04 00:29:39;;;;;;;;;0.50;0.00;;;;;18.44;52.58;101302.13;5081987;27;45322;-78
2022/07/04 00:32:05;;;;;;;;;1.00;1.00;;;;;18.40;52.30;101300.50;5098303;27;45414;-78
2022/07/04 00:34:30;;;;;;;;;0.00;0.00;;;;;18.40;52.48;101308.50;5081137;27;45482;-77
2022/07/04 00:36:56;;;;;;;;;0.00;0.00;;;;;18.32;52.76;101311.50;5084277;27;46412;-78
2022/07/04 00:39:21;;;;;;;;;0.00;0.00;;;;;18.32;52.51;101311.50;5092671;27;45368;-78
2022/07/04 00:41:47;;;;;;;;;0.00;0.00;;;;;18.31;52.79;101324.94;5085679;27;45448;-78
2022/07/04 00:44:15;;;;;;;;;0.00;0.00;;;;;18.23;52.65;101318.09;5085360;27;45389;-79
2022/07/04 00:46:41;;;;;;;;;0.00;0.00;;;;;18.14;53.34;101318.47;5087977;27;46145;-79
2022/07/04 00:49:07;;;;;;;;;0.00;0.00;;;;;18.16;53.13;101316.63;5081425;27;45438;-78
2022/07/04 00:51:33;;;;;;;;;0.00;0.00;;;;;18.18;52.76;101319.25;5088104;27;45498;-78
2022/07/04 00:53:59;;;;;;;;;0.00;0.00;;;;;18.15;52.87;101322.03;5088954;27;45942;-79
2022/07/04 00:56:25;;;;;;;;;0.00;0.00;;;;;18.10;52.95;101314.19;5086943;27;46095;-78
2022/07/04 00:58:51;;;;;;;;;0.00;0.00;;;;;17.98;53.22;101309.34;5093635;27;45585;-77
2022/07/04 01:01:17;;;;;;;;;1.25;0.00;;;;;17.89;53.32;101300.72;5098345;27;45448;-78
2022/07/04 01:03:43;;;;;;;;;0.00;0.00;;;;;18.00;53.01;101312.81;5092032;27;45669;-78
2022/07/04 01:06:09;;;;;;;;;0.00;0.00;;;;;17.90;53.52;101305.16;5085220;27;45574;-77
2022/07/04 01:08:40;;;;;;;;;0.00;0.00;;;;;17.86;53.14;101303.50;5082939;27;45336;-79
2022/07/04 01:11:05;;;;;;;;;0.00;0.00;;;;;17.88;53.38;101303.44;5087637;27;45431;-78
2022/07/04 01:13:31;;;;;;;;;0.00;0.00;;;;;17.74;53.36;101294.13;5086755;27;45469;-78
2022/07/04 01:15:56;;;;;;;;;0.00;0.00;;;;;17.84;53.81;101321.41;5089926;27;46376;-78
2022/07/04 01:18:22;;;;;;;;;0.00;0.00;;;;;17.83;53.35;101311.63;5087809;27;45587;-77
2022/07/04 01:20:49;;;;;;;;;1.00;1.00;;;;;17.81;53.52;101315.28;5086574;27;45521;-78
2022/07/04 01:23:15;;;;;;;;;0.00;0.00;;;;;17.81;53.02;101329.53;5092930;27;45414;-79
2022/07/04 01:25:41;;;;;;;;;0.00;0.00;;;;;17.75;53.89;101327.09;5097735;27;46366;-77
2022/07/04 01:28:09;;;;;;;;;1.00;0.00;;;;;17.71;53.57;101322.78;5088264;27;45563;-77
2022/07/04 01:30:36;;;;;;;;;0.00;0.00;;;;;17.66;53.80;101322.06;5091105;27;45417;-78
2022/07/04 01:33:02;;;;;;;;;0.00;0.00;;;;;17.61;53.64;101318.72;5093941;27;45352;-77
2022/07/04 01:35:28;;;;;;;;;0.00;0.00;;;;;17.63;52.75;101324.88;5087019;27;46057;-78
2022/07/04 01:37:57;;;;;;;;;0.00;0.00;;;;;17.49;52.64;101299.56;5098485;27;45425;-77
2022/07/04 01:40:22;;;;;;;;;0.00;0.00;;;;;17.50;52.80;101297.75;5095314;27;45336;-79
2022/07/04 01:42:48;;;;;;;;;0.00;0.00;;;;;17.58;51.99;101301.88;5090339;27;45254;-79
2022/07/04 01:45:14;;;;;;;;;0.00;0.00;;;;;17.67;51.87;101319.38;5093246;27;45591;-79
2022/07/04 01:47:40;;;;;;;;;0.00;0.00;;;;;17.61;52.16;101302.69;5094000;27;45487;-78
2022/07/04 01:50:08;;;;;;;;;0.00;0.00;;;;;17.65;51.83;101307.84;5089114;27;45498;-78
2022/07/04 01:52:33;;;;;;;;;0.00;0.00;;;;;17.63;51.84;101308.84;5094317;27;45440;-78
2022/07/04 01:54:59;;;;;;;;;1.00;0.00;;;;;17.58;52.12;101306.34;5086303;27;45435;-78
2022/07/04 01:57:26;;;;;;;;;0.00;0.00;;;;;17.64;52.15;101310.59;5086757;27;45236;-78
2022/07/04 02:02:36;;;;;;;;;0.00;0.00;;;;;17.54;52.21;101302.91;5096089;27;45455;-79
2022/07/04 02:05:02;;;;;;;;;0.00;0.00;;;;;17.33;52.44;101271.66;5081187;27;46199;-78
2022/07/04 02:07:27;;;;;;;;;0.00;0.00;;;;;17.49;52.30;101301.34;5082835;27;45523;-77
2022/07/04 02:09:53;;;;;;;;;1.00;0.00;;;;;17.44;52.77;101304.19;5088015;27;45330;-77
2022/07/04 02:15:03;;;;;;;;;0.00;0.00;;;;;17.48;52.85;101300.47;5098359;27;45312;-78
2022/07/04 02:17:28;;;;;;;;;0.00;0.00;;;;;17.43;52.91;101298.91;5094392;27;45448;-77
2022/07/04 02:19:54;;;;;;;;;0.00;0.00;;;;;17.40;53.14;101305.25;5091965;27;45457;-79
2022/07/04 02:22:19;;;;;;;;;0.00;0.00;;;;;17.33;53.24;101293.91;5093935;27;45405;-77
2022/07/04 02:24:45;;;;;;;;;0.00;0.00;;;;;17.29;53.32;101294.94;5088265;27;45434;-77
2022/07/04 02:27:10;;;;;;;;;1.00;1.00;;;;;17.31;53.39;101308.22;5085096;27;45483;-77
2022/07/04 02:29:36;;;;;;;;;1.00;0.00;;;;;17.31;53.78;101305.56;5096164;27;45409;-79
2022/07/04 02:32:02;;;;;;;;;0.00;0.00;;;;;17.21;53.71;101287.19;5104554;27;45402;-78
2022/07/04 02:34:28;;;;;;;;;0.00;0.00;;;;;17.25;53.87;101303.13;5090639;27;45393;-78
2022/07/04 02:36:53;;;;;;;;;0.00;0.00;;;;;17.23;54.14;101305.84;5095707;27;45631;-78
2022/07/04 02:39:18;;;;;;;;;0.00;0.00;;;;;17.17;54.42;101301.63;5089149;27;46424;-79
2022/07/04 02:41:44;;;;;;;;;0.00;0.00;;;;;17.13;54.14;101305.31;5092262;27;45515;-78
2022/07/04 02:44:09;;;;;;;;;0.00;0.00;;;;;17.09;54.49;101308.16;5093249;27;46003;-79
2022/07/04 02:46:35;;;;;;;;;0.50;0.00;;;;;17.08;54.69;101307.28;5088466;27;45489;-77
2022/07/04 02:49:01;;;;;;;;;0.00;0.00;;;;;17.08;54.77;101311.75;5090408;27;45477;-78
2022/07/04 02:51:27;;;;;;;;;0.75;0.00;;;;;17.11;54.60;101315.19;5088442;27;45531;-77
2022/07/04 02:53:53;;;;;;;;;0.25;0.00;;;;;17.08;54.63;101317.97;5078313;27;45665;-78
2022/07/04 02:56:18;;;;;;;;;0.00;0.00;;;;;16.98;54.89;101311.22;5083923;27;45568;-77
2022/07/04 02:58:43;;;;;;;;;0.00;0.00;;;;;16.94;54.91;101304.22;5084994;27;45706;-77
2022/07/04 03:01:10;;;;;;;;;0.50;0.00;;;;;16.89;55.25;101314.19;5088733;27;45530;-78
2022/07/04 03:03:35;;;;;;;;;0.00;0.00;;;;;16.90;55.58;101323.94;5093547;27;45474;-77
2022/07/04 03:06:01;;;;;;;;;0.00;0.00;;;;;16.91;55.39;101323.03;5091663;27;45470;-77
2022/07/04 03:08:27;;;;;;;;;0.00;0.00;;;;;16.84;55.67;101317.84;5093897;27;45391;-76
2022/07/04 03:10:52;;;;;;;;;0.00;0.00;;;;;16.84;55.56;101325.88;5092419;27;45418;-78
2022/07/04 03:13:19;;;;;;;;;0.00;0.00;;;;;16.85;55.46;101322.28;5082230;27;45546;-78
2022/07/04 03:15:45;;;;;;;;;0.25;0.00;;;;;16.84;55.59;101325.88;5095627;27;45327;-78
2022/07/04 03:18:11;;;;;;;;;1.00;0.00;;;;;16.84;55.34;101330.34;5094266;27;45305;-78
2022/07/04 03:20:36;;;;;;;;;0.00;0.00;;;;;16.81;55.95;101331.31;5083422;27;45378;-78
2022/07/04 03:23:02;;;;;;;;;0.00;0.00;;;;;16.75;55.83;101334.19;5084135;27;46934;-78
2022/07/04 03:25:27;;;;;;;;;0.00;0.00;;;;;16.76;56.17;101338.63;5082524;27;45424;-78
2022/07/04 03:27:53;;;;;;;;;0.00;0.00;;;;;16.51;55.74;101287.84;5093993;27;45476;-78
2022/07/04 03:30:18;;;;;;;;;0.00;0.00;;;;;16.68;56.45;101322.81;5095844;27;45236;-78
2022/07/04 03:32:43;;;;;;;;;0.00;0.00;;;;;16.58;56.17;101320.53;5082796;27;45501;-78
2022/07/04 03:35:09;;;;;;;;;0.00;0.00;;;;;16.54;56.68;101329.56;5092695;27;45509;-78
2022/07/04 03:37:34;;;;;;;;;1.00;0.00;;;;;16.49;56.78;101330.59;5088091;27;45465;-79
2022/07/04 03:40:00;;;;;;;;;0.00;0.00;;;;;16.47;56.69;101332.44;5093097;27;45304;-77
2022/07/04 03:42:25;;;;;;;;;0.00;0.00;;;;;16.45;56.81;101328.94;5092393;27;46042;-77
2022/07/04 03:44:51;;;;;;;;;1.00;0.00;;;;;16.42;56.80;101321.03;5088195;27;45385;-78
2022/07/04 03:47:16;;;;;;;;;0.00;0.00;;;;;16.47;57.03;101329.78;5092496;27;45501;-78
2022/07/04 03:49:41;;;;;;;;;0.25;0.25;;;;;16.36;57.01;101307.03;5086307;27;45403;-78
2022/07/04 03:52:07;;;;;;;;;0.00;0.00;;;;;16.51;56.72;101325.22;5085671;27;46573;-80
2022/07/04 03:54:32;;;;;;;;;0.00;0.00;;;;;16.35;56.77;101290.13;5084413;27;45756;-78
2022/07/04 03:56:58;;;;;;;;;0.00;0.00;;;;;16.50;56.88;101319.00;5092426;27;45394;-78
2022/07/04 03:59:23;;;;;;;;;0.00;0.00;;;;;16.48;56.95;101310.16;5081185;27;45483;-78
2022/07/04 04:01:49;;;;;;;;;0.00;0.00;;;;;16.54;56.96;101326.91;5091513;27;45378;-77
2022/07/04 04:06:58;;;;;;;;;2.00;0.00;;;;;16.55;57.37;101318.84;5088692;27;45435;-78
2022/07/04 04:09:24;;;;;;;;;0.00;0.00;;;;;16.58;57.19;101325.88;5088867;27;45348;-79
2022/07/04 04:11:51;;;;;;;;;0.00;0.00;;;;;16.58;57.06;101329.44;5095722;27;45483;-77
2022/07/04 04:14:16;;;;;;;;;1.00;0.00;;;;;16.61;57.22;101332.00;5092750;27;45421;-78
2022/07/04 04:16:42;;;;;;;;;1.00;1.00;;;;;16.60;57.72;101337.38;5091765;27;45424;-79
2022/07/04 04:19:08;;;;;;;;;0.00;0.00;;;;;16.62;57.50;101331.03;5095305;27;45338;-78
2022/07/04 04:21:33;;;;;;;;;1.00;1.00;;;;;16.87;56.90;101347.16;5080732;27;45692;-78
2022/07/04 04:23:59;;;;;;;;;0.00;0.00;;;;;17.41;55.76;101344.38;5086545;27;45400;-78
2022/07/04 04:26:24;;;;;;;;;0.00;0.00;;;;;17.74;54.48;101309.31;5084201;27;45517;-79
2022/07/04 04:28:50;;;;;;;;;1.50;0.75;;;;;18.37;53.17;101338.06;5087239;27;45573;-78
2022/07/04 04:31:17;;;;;;;;;0.00;0.00;;;;;18.93;51.75;101348.28;5095357;27;46458;-77
2022/07/04 04:33:42;;;;;;;;;0.00;0.00;;;;;19.43;50.50;101341.59;5089705;27;45434;-77
2022/07/04 04:36:07;;;;;;;;;0.00;0.00;;;;;19.96;49.19;101333.88;5092442;27;45649;-78
2022/07/04 04:38:32;;;;;;;;;0.00;0.00;;;;;20.59;48.41;101336.19;5090373;27;45560;-78
2022/07/04 04:40:58;;;;;;;;;0.00;0.00;;;;;21.06;46.73;101332.94;5087611;27;46294;-79
2022/07/04 04:43:23;;;;;;;;;1.00;0.00;;;;;21.53;45.79;101336.75;5090299;27;45501;-78
2022/07/04 04:45:49;;;;;;;;;0.00;0.00;;;;;22.02;44.52;101327.81;5085853;27;45540;-79
2022/07/04 04:48:14;;;;;;;;;0.00;0.00;;;;;22.46;43.61;101337.88;5092564;27;45560;-78
2022/07/04 04:50:39;;;;;;;;;1.00;0.00;;;;;23.09;42.47;101338.69;5084571;27;45806;-79
2022/07/04 04:53:05;;;;;;;;;0.00;0.00;;;;;23.41;41.44;101325.94;5083932;27;45595;-78
2022/07/04 04:55:30;;;;;;;;;0.00;0.00;;;;;23.70;40.91;101328.63;5091281;27;45526;-78
2022/07/04 04:57:56;;;;;;;;;0.00;0.00;;;;;24.16;39.95;101324.81;5077692;27;45610;-78
2022/07/04 05:00:21;;;;;;;;;0.00;0.00;;;;;24.59;39.60;101324.69;5086830;27;45485;-78
2022/07/04 05:02:46;;;;;;;;;0.00;0.00;;;;;25.00;38.44;101314.72;5096338;27;45421;-78
2022/07/04 05:05:12;;;;;;;;;1.00;0.50;;;;;25.58;38.02;101311.59;5096236;27;45512;-78
2022/07/04 05:07:37;;;;;;;;;0.00;0.00;;;;;26.06;36.34;101315.31;5093551;27;45457;-79
2022/07/04 05:10:03;;;;;;;;;0.00;0.00;;;;;26.51;35.64;101316.53;5096527;27;46311;-79
2022/07/04 05:12:29;;;;;;;;;0.00;0.00;;;;;26.98;34.89;101325.63;5091688;27;45444;-79
2022/07/04 05:14:55;;;;;;;;;0.75;0.75;;;;;27.31;34.17;101313.06;5093940;27;45481;-79
2022/07/04 05:17:20;;;;;;;;;0.00;0.00;;;;;27.66;33.86;101325.69;5088944;27;45411;-78
2022/07/04 05:19:47;;;;;;;;;0.00;0.00;;;;;28.02;33.30;101315.59;5085405;27;45950;-79
2022/07/04 05:22:12;;;;;;;;;1.50;0.50;;;;;28.51;32.76;101308.78;5086077;27;45485;-79
2022/07/04 05:24:40;;;;;;;;;0.75;0.00;;;;;29.03;32.14;101314.34;5095026;27;45458;-79
2022/07/04 05:27:07;;;;;;;;;1.00;1.00;;;;;29.39;31.04;101313.97;5095137;27;45629;-78
2022/07/04 05:29:33;;;;;;;;;0.00;0.00;;;;;29.70;30.43;101313.97;5088305;27;45637;-78
2022/07/04 05:31:58;;;;;;;;;1.00;1.00;;;;;29.70;30.78;101317.56;5094078;27;45575;-78
2022/07/04 05:34:24;;;;;;;;;1.00;0.00;;;;;29.85;30.59;101307.19;5090659;27;45633;-79
2022/07/04 05:36:49;;;;;;;;;2.00;0.00;;;;;30.08;30.00;101299.63;5098997;27;45634;-78
2022/07/04 05:39:15;;;;;;;;;1.50;1.50;;;;;30.42;29.25;101312.88;5092175;27;46181;-79
2022/07/04 05:41:40;;;;;;;;;0.00;0.00;;;;;30.63;29.33;101318.19;5095018;27;45502;-79
2022/07/04 05:44:06;;;;;;;;;1.25;0.00;;;;;31.00;29.64;101325.69;5085040;27;45515;-78
2022/07/04 05:46:31;;;;;;;;;0.75;0.00;;;;;31.21;28.73;101319.16;5096496;27;45650;-78
2022/07/04 05:48:56;;;;;;;;;0.00;0.00;;;;;31.38;28.28;101317.50;5089564;27;46275;-77
2022/07/04 05:51:22;;;;;;;;;1.00;0.00;;;;;31.50;28.07;101320.91;5082686;27;45482;-79
2022/07/04 05:53:48;;;;;;;;;0.50;0.50;;;;;31.57;27.83;101327.53;5093333;27;45551;-78
2022/07/04 05:56:13;;;;;;;;;2.00;1.00;;;;;31.56;27.79;101309.44;5092356;27;45690;-78
2022/07/04 05:58:40;;;;;;;;;0.25;0.00;;;;;31.73;27.46;101315.09;5086899;27;45469;-78
2022/07/04 06:01:06;;;;;;;;;1.00;0.00;;;;;32.05;27.77;101317.34;5087469;27;45410;-78
2022/07/04 06:03:31;;;;;;;;;1.25;1.00;;;;;32.42;27.26;101321.88;5091949;27;45403;-78
2022/07/04 06:05:57;;;;;;;;;0.00;0.00;;;;;32.64;26.43;101320.53;5094913;27;45368;-79
2022/07/04 06:08:23;;;;;;;;;0.00;0.00;;;;;33.02;26.48;101334.03;5105102;27;46137;-79
2022/07/04 06:10:48;;;;;;;;;0.50;0.50;;;;;33.26;25.62;101314.22;5093286;27;45418;-80
2022/07/04 06:13:14;;;;;;;;;2.00;0.00;;;;;33.46;25.91;101312.94;5092265;27;45453;-79
2022/07/04 06:15:39;;;;;;;;;0.50;0.50;;;;;33.71;25.23;101329.53;5098248;27;45450;-79
2022/07/04 06:18:05;;;;;;;;;1.00;1.00;;;;;33.94;25.32;101328.94;5089753;27;46049;-79
2022/07/04 06:20:30;;;;;;;;;0.25;0.25;;;;;34.08;24.71;101321.97;5082007;27;45434;-78
2022/07/04 06:22:56;;;;;;;;;0.00;0.00;;;;;34.09;24.71;101324.53;5093612;27;45443;-79
2022/07/04 06:25:23;;;;;;;;;0.50;0.50;;;;;34.33;23.75;101312.78;5085377;27;45412;-78
2022/07/04 06:27:51;;;;;;;;;0.00;0.00;;;;;34.49;24.37;101322.91;5089442;27;46528;-80
2022/07/04 06:30:17;;;;;;;;;0.00;0.00;;;;;34.68;24.03;101326.34;5098216;27;45427;-79
2022/07/04 06:32:49;;;;;;;;;1.00;1.00;;;;;34.55;23.29;101328.75;5090710;27;45458;-78
2022/07/04 06:38:06;;;;;;;;;0.25;0.25;;;;;34.95;23.14;101324.31;5093054;27;45691;-79
2022/07/04 06:40:32;;;;;;;;;1.75;1.00;;;;;34.75;23.91;101308.16;5091344;27;45451;-78
2022/07/04 06:42:57;;;;;;;;;3.00;0.00;;;;;35.10;22.85;101324.47;5089261;27;45846;-78
2022/07/04 06:45:23;;;;;;;;;0.00;0.00;;;;;35.15;23.45;101314.69;5090049;27;45722;-80
2022/07/04 06:47:48;;;;;;;;;0.00;0.00;;;;;35.42;23.14;101309.81;5087361;27;45438;-78
2022/07/04 06:50:13;;;;;;;;;0.50;0.00;;;;;35.49;22.96;101308.09;5080801;27;45425;-78
2022/07/04 06:52:39;;;;;;;;;2.25;1.00;;;;;35.66;22.54;101324.50;5086713;27;45727;-79
2022/07/04 06:55:06;;;;;;;;;1.00;1.00;;;;;35.82;22.95;101327.22;5090790;27;45391;-78
2022/07/04 06:57:34;;;;;;;;;0.00;0.00;;;;;35.93;22.38;101335.06;5084250;27;45509;-79
2022/07/04 07:00:00;;;;;;;;;0.00;0.00;;;;;35.93;21.78;101337.81;5087783;27;45608;-79
2022/07/04 07:02:28;;;;;;;;;0.00;0.00;;;;;35.96;22.31;101336.59;5093672;27;45521;-78
2022/07/04 07:04:55;;;;;;;;;0.00;0.00;;;;;36.10;21.50;101346.81;5091738;27;45484;-78
2022/07/04 07:07:21;;;;;;;;;0.50;0.50;;;;;35.51;21.49;101347.22;5096029;27;46544;-79
2022/07/04 07:09:46;;;;;;;;;1.00;0.00;;;;;35.69;22.18;101337.91;5096209;27;45328;-80
2022/07/04 07:12:12;;;;;;;;;1.50;0.00;;;;;35.54;22.20;101349.59;5097387;27;45385;-78
2022/07/04 07:14:37;;;;;;;;;0.00;0.00;;;;;35.29;21.96;101348.84;5093680;27;45364;-79
2022/07/04 07:17:03;;;;;;;;;0.00;0.00;;;;;35.38;22.73;101350.53;5094995;27;45638;-83
2022/07/04 07:19:28;;;;;;;;;0.00;0.00;;;;;35.15;21.87;101350.38;5094574;27;45335;-78
2022/07/04 07:21:54;;;;;;;;;2.00;0.50;;;;;35.29;21.95;101350.72;5097075;27;45403;-79
2022/07/04 07:24:19;;;;;;;;;0.00;0.00;;;;;35.37;22.14;101353.44;5081060;27;45667;-79
2022/07/04 07:26:44;;;;;;;;;0.75;0.75;;;;;35.50;22.99;101336.41;5089888;27;47420;-79
2022/07/04 07:29:10;;;;;;;;;1.00;1.00;;;;;36.03;22.07;101355.97;5094681;27;45733;-78
2022/07/04 07:31:35;;;;;;;;;0.00;0.00;;;;;36.49;22.31;101346.94;5095256;27;45448;-78
2022/07/04 07:34:01;;;;;;;;;0.50;0.50;;;;;36.73;21.26;101351.41;5090472;27;45666;-78
2022/07/04 07:36:26;;;;;;;;;2.00;2.00;;;;;37.01;21.68;101346.19;5090134;27;45562;-76
2022/07/04 07:38:53;;;;;;;;;1.75;1.75;;;;;36.93;21.09;101314.09;5096772;27;45627;-78
2022/07/04 07:41:18;;;;;;;;;2.75;1.75;;;;;37.17;20.62;101331.38;5091792;27;45470;-78
2022/07/04 07:43:46;;;;;;;;;1.00;1.00;;;;;37.27;20.78;101337.50;5090906;27;45435;-78
2022/07/04 07:46:13;;;;;;;;;1.00;1.00;;;;;37.31;20.40;101324.25;5094268;27;46345;-79
2022/07/04 07:48:39;;;;;;;;;1.00;1.00;;;;;37.37;20.05;101319.84;5093141;27;45464;-79
2022/07/04 07:51:05;;;;;;;;;0.00;0.00;;;;;37.64;20.45;101340.38;5086687;27;45569;-79
2022/07/04 07:53:33;;;;;;;;;0.00;0.00;;;;;37.62;19.85;101324.03;5094910;27;45541;-79
2022/07/04 07:55:58;;;;;;;;;2.75;1.75;;;;;37.64;20.85;101332.09;5089846;27;46269;-79
2022/07/04 07:58:24;;;;;;;;;1.00;1.00;;;;;37.72;19.61;101332.03;5082441;27;45438;-79
2022/07/04 08:00:49;;;;;;;;;2.00;1.25;;;;;37.74;19.94;101331.84;5093158;27;45355;-78
2022/07/04 08:05:58;;;;;;;;;0.00;0.00;;;;;37.79;19.47;101315.56;5106581;27;45460;-81
2022/07/04 08:08:24;;;;;;;;;3.00;1.75;;;;;37.84;19.31;101324.13;5100019;27;45352;-80
2022/07/04 08:10:50;;;;;;;;;2.00;1.00;;;;;37.93;19.79;101327.63;5088485;27;45738;-80
2022/07/04 08:13:16;;;;;;;;;0.00;0.00;;;;;37.61;19.87;101318.69;5076533;27;45575;-81
2022/07/04 08:15:41;;;;;;;;;0.75;0.75;;;;;37.64;20.37;101302.66;5075943;27;46365;-79
2022/07/04 08:18:07;;;;;;;;;1.00;1.00;;;;;38.02;19.80;101330.06;5073303;28;46304;-80
2022/07/04 08:20:32;;;;;;;;;0.25;0.25;;;;;37.91;20.36;101327.81;5088632;27;46337;-80
2022/07/04 08:22:57;;;;;;;;;0.25;0.25;;;;;38.04;19.54;101319.69;5093756;27;45442;-80
2022/07/04 08:25:23;;;;;;;;;0.00;0.00;;;;;38.03;18.79;101297.81;5095059;27;46235;-80
2022/07/04 08:27:48;;;;;;;;;0.00;0.00;;;;;38.30;19.35;101325.75;5095394;27;45427;-80
2022/07/04 08:30:14;;;;;;;;;0.00;0.00;;;;;38.12;19.24;101313.19;5096033;27;45457;-80
2022/07/04 08:32:39;;;;;;;;;0.25;0.25;;;;;38.20;19.80;101313.13;5100593;27;45276;-79
2022/07/04 08:35:05;;;;;;;;;1.00;1.00;;;;;38.29;18.37;101321.25;5099537;27;45447;-79
2022/07/04 08:37:31;;;;;;;;;1.50;0.00;;;;;38.06;18.51;101302.09;5091280;27;45550;-80
2022/07/04 08:39:57;;;;;;;;;1.00;1.00;;;;;37.85;18.21;101301.00;5076805;28;45375;-81
2022/07/04 08:42:23;;;;;;;;;0.00;0.00;;;;;37.79;18.74;101310.91;5075141;28;45423;-79
2022/07/04 08:44:55;;;;;;;;;0.00;0.00;;;;;37.79;18.68;101315.56;5079836;27;46111;-79
2022/07/04 08:47:25;;;;;;;;;0.00;0.00;;;;;37.27;19.36;101298.94;5089179;27;45442;-80
2022/07/04 08:49:58;;;;;;;;;0.25;0.25;;;;;37.22;19.31;101282.13;5093505;27;45425;-80
2022/07/04 08:52:36;;;;;;;;;0.75;0.75;;;;;37.56;19.38;101305.50;5094324;27;45444;-80
2022/07/04 09:00:34;;;;;;;;;0.00;0.00;;;;;37.45;18.67;101306.00;5096113;27;45354;-81
2022/07/04 09:03:01;;;;;;;;;0.25;0.25;;;;;37.23;18.56;101300.41;5100025;27;45559;-80
2022/07/04 09:05:27;;;;;;;;;0.25;0.25;;;;;37.26;19.42;101300.00;5099199;27;45490;-80
2022/07/04 09:07:54;;;;;;;;;1.00;1.00;;;;;37.45;19.18;101304.06;5094375;27;45445;-81
2022/07/04 09:10:20;;;;;;;;;1.25;1.00;;;;;37.42;18.33;101298.09;5095435;27;45556;-79
2022/07/04 09:12:46;;;;;;;;;0.00;0.00;;;;;37.64;18.16;101285.22;5094453;27;45411;-80
2022/07/04 09:15:11;;;;;;;;;0.00;0.00;;;;;37.50;18.18;101285.09;5093910;27;45465;-79
2022/07/04 09:17:37;;;;;;;;;0.00;0.00;;;;;37.17;18.45;101296.47;5094900;27;45547;-81
2022/07/04 09:20:20;;;;;;;;;0.00;0.00;;;;;36.88;18.84;101290.91;5094404;27;45466;-80
2022/07/04 09:22:49;;;;;;;;;0.00;0.00;;;;;36.76;19.06;101298.75;5096271;27;45600;-80
2022/07/04 09:25:16;;;;;;;;;0.00;0.00;;;;;36.56;19.38;101266.22;5097050;27;45589;-80
2022/07/04 09:27:44;;;;;;;;;0.00;0.00;;;;;36.52;19.05;101286.91;5096719;27;45460;-80
2022/07/04 09:30:12;;;;;;;;;0.25;0.25;;;;;36.66;20.22;101278.88;5095039;27;45449;-81
2022/07/04 09:32:40;;;;;;;;;0.75;0.75;;;;;36.91;18.78;101268.50;5095445;27;45354;-80
2022/07/04 09:35:08;;;;;;;;;0.75;0.75;;;;;36.96;18.89;101266.91;5101780;27;46319;-80
2022/07/04 09:37:35;;;;;;;;;1.50;0.50;;;;;37.27;19.79;101290.69;5095651;27;45425;-82
2022/07/04 09:40:04;;;;;;;;;2.75;0.00;;;;;37.54;18.82;101291.06;5094353;27;45339;-81
2022/07/04 09:42:41;;;;;;;;;1.00;0.00;;;;;37.68;18.96;101283.81;5094472;27;45343;-81
2022/07/04 09:45:10;;;;;;;;;0.00;0.00;;;;;37.64;18.61;101280.59;5096315;27;45348;-80
2022/07/04 09:47:36;;;;;;;;;0.00;0.00;;;;;37.55;18.62;101265.22;5097067;27;45342;-79
2022/07/04 09:50:14;;;;;;;;;0.00;0.00;;;;;37.50;18.85;101281.47;5097367;27;45435;-79
2022/07/04 09:52:48;;;;;;;;;0.50;0.00;;;;;37.31;18.47;101269.13;5097881;27;45747;-79
2022/07/04 09:55:22;;;;;;;;;0.00;0.00;;;;;37.19;18.30;101268.72;5096347;27;46191;-79
2022/07/04 09:57:48;;;;;;;;;0.75;0.00;;;;;37.18;18.73;101267.00;5097955;27;45423;-80
2022/07/04 10:00:28;;;;;;;;;1.25;0.00;;;;;37.31;19.82;101291.19;5097880;27;45489;-80
2022/07/04 10:02:56;;;;;;;;;0.00;0.00;;;;;37.49;19.50;101285.25;5100229;27;45451;-80
2022/07/04 10:05:30;;;;;;;;;0.75;0.00;;;;;37.55;17.73;101291.91;5113354;27;45146;-80
2022/07/04 10:07:57;;;;;;;;;1.00;1.00;;;;;37.38;18.01;101288.50;5086613;27;45556;-80
2022/07/04 10:10:23;;;;;;;;;0.00;0.00;;;;;36.94;18.02;101280.03;5078474;27;45315;-79
2022/07/04 10:12:50;;;;;;;;;0.00;0.00;;;;;36.85;17.40;101272.00;5076517;28;45409;-81
2022/07/04 10:15:16;;;;;;;;;1.00;1.00;;;;;36.67;19.62;101247.56;5078318;27;45493;-80
2022/07/04 10:17:42;;;;;;;;;0.00;0.00;;;;;36.83;19.80;101244.66;5097122;27;45394;-79
2022/07/04 10:20:09;;;;;;;;;0.00;0.00;;;;;36.90;18.58;101273.16;5080531;27;45432;-82
2022/07/04 10:22:36;;;;;;;;;0.50;0.50;;;;;37.12;19.35;101276.03;5076314;27;45501;-80
2022/07/04 10:25:01;;;;;;;;;0.00;0.00;;;;;37.30;19.28;101284.78;5077703;27;45575;-80
2022/07/04 10:27:28;;;;;;;;;0.00;0.00;;;;;37.47;17.92;101277.19;5087369;27;45589;-80
2022/07/04 10:29:54;;;;;;;;;0.00;0.00;;;;;36.89;18.07;101252.16;5077042;28;45459;-80
2022/07/04 10:32:20;;;;;;;;;0.00;0.00;;;;;36.76;18.37;101271.22;5077348;28;45393;-80
2022/07/04 10:34:45;;;;;;;;;0.25;0.25;;;;;36.54;18.47;101262.81;5079966;27;45407;-80
2022/07/04 10:37:11;;;;;;;;;0.00;0.00;;;;;36.67;19.73;101272.31;5094595;27;45328;-79
2022/07/04 10:39:38;;;;;;;;;0.00;0.00;;;;;36.82;19.49;101264.97;5097511;27;45424;-79
2022/07/04 10:42:06;;;;;;;;;0.00;0.00;;;;;36.71;19.16;101262.66;5096890;27;45380;-80
2022/07/04 10:44:37;;;;;;;;;2.50;0.00;;;;;36.48;18.46;101262.69;5097600;27;45424;-79
2022/07/04 10:47:05;;;;;;;;;0.50;0.50;;;;;36.25;17.92;101275.38;5095599;27;45480;-78
2022/07/04 10:49:31;;;;;;;;;0.75;0.75;;;;;36.13;20.54;101274.09;5098723;27;45288;-78
2022/07/04 10:52:13;;;;;;;;;0.50;0.50;;;;;36.25;20.09;101275.38;5099634;27;45646;-80
2022/07/04 10:54:40;;;;;;;;;1.00;0.00;;;;;36.10;18.33;101255.22;5095710;27;45467;-80
2022/07/04 10:57:14;;;;;;;;;0.25;0.00;;;;;36.29;18.82;101270.44;5095072;27;45419;-80
2022/07/04 11:00:01;;;;;;;;;1.00;1.00;;;;;35.85;20.23;101269.13;5094007;27;45668;-79
2022/07/04 11:02:28;;;;;;;;;0.00;0.00;;;;;35.69;19.68;101274.69;5094724;27;45615;-79
2022/07/04 11:05:00;;;;;;;;;0.50;0.00;;;;;35.65;19.18;101268.69;5100662;27;45555;-79
2022/07/04 11:07:46;;;;;;;;;3.00;2.00;;;;;35.65;19.08;101267.81;5098270;27;45350;-80
2022/07/04 11:10:33;;;;;;;;;1.00;1.00;;;;;35.70;19.32;101262.66;5074225;27;45467;-79
2022/07/04 11:13:17;;;;;;;;;2.00;1.00;;;;;35.76;19.47;101239.94;5051994;28;45731;-80
2022/07/04 11:15:43;;;;;;;;;0.00;0.00;;;;;35.99;19.34;101261.16;5054049;28;46152;-80
2022/07/04 11:18:10;;;;;;;;;0.50;0.50;;;;;35.93;19.91;101263.56;5052782;28;45378;-79
2022/07/04 11:20:36;;;;;;;;;1.25;1.25;;;;;36.23;19.11;101255.47;5053252;28;45366;-79
2022/07/04 11:23:16;;;;;;;;;1.00;1.00;;;;;36.40;19.00;101255.38;5053484;28;45586;-80
2022/07/04 11:25:44;;;;;;;;;1.00;1.00;;;;;36.54;18.69;101253.72;5053834;28;45495;-83
2022/07/04 11:28:23;;;;;;;;;1.25;0.75;;;;;36.37;18.67;101242.84;5052191;28;45564;-81
2022/07/04 11:30:50;;;;;;;;;0.00;0.00;;;;;36.54;18.95;101262.81;5052576;28;45464;-82
2022/07/04 11:33:21;;;;;;;;;0.25;0.25;;;;;36.52;18.74;101253.88;5053553;28;45481;-79
2022/07/04 11:36:06;;;;;;;;;0.50;0.00;;;;;36.39;18.55;101248.16;5039273;28;46568;-80
2022/07/04 11:38:53;;;;;;;;;0.25;0.25;;;;;36.36;19.16;101259.53;5054567;28;45428;-79
2022/07/04 11:46:50;;;;;;;;;0.00;0.00;;;;;36.11;18.57;101235.78;5043031;28;45789;-82